createdAt,value
2024-04-19T00:02:15.733Z,86.10
2024-04-19T00:07:18.882Z,86.37
2024-04-19T00:12:21.427Z,86.46
2024-04-19T00:17:23.958Z,86.55
2024-04-19T00:22:26.523Z,86.41
2024-04-19T00:27:29.094Z,86.64
2024-04-19T00:32:31.742Z,86.55
2024-04-19T00:37:35.415Z,87.16
2024-04-19T00:42:38.592Z,86.74
2024-04-19T00:47:41.583Z,86.43
2024-04-19T00:52:44.561Z,85.85
2024-04-19T00:57:47.407Z,86.05
2024-04-19T01:02:50.284Z,86.48
2024-04-19T01:07:53.256Z,86.88
2024-04-19T01:12:55.913Z,85.96
2024-04-19T01:17:58.704Z,85.72
2024-04-19T01:23:02.534Z,86.04
2024-04-19T01:28:10.320Z,86.19
2024-04-19T01:33:13.781Z,86.17
2024-04-19T01:38:16.722Z,86.06
2024-04-19T01:43:19.194Z,86.31
2024-04-19T01:48:21.919Z,86.61
2024-04-19T01:53:24.426Z,86.91
2024-04-19T01:58:27.311Z,86.84
2024-04-19T02:03:30.230Z,86.63
2024-04-19T02:08:32.793Z,86.53
2024-04-19T02:13:35.408Z,86.37
2024-04-19T02:18:38.205Z,86.39
2024-04-19T02:23:43.084Z,86.34
2024-04-19T02:29:04.914Z,86.69
2024-04-19T02:34:07.604Z,86.43
2024-04-19T02:39:11.183Z,86.01
2024-04-19T02:44:13.739Z,85.83
2024-04-19T02:49:16.300Z,85.50
2024-04-19T02:54:18.834Z,85.16
2024-04-19T02:59:21.518Z,85.34
2024-04-19T03:04:24.224Z,85.98
2024-04-19T03:09:26.810Z,85.91
2024-04-19T03:14:29.358Z,85.73
2024-04-19T03:19:31.922Z,85.72
2024-04-19T03:24:36.085Z,85.21
2024-04-19T03:29:38.808Z,84.88
2024-04-19T03:34:44.341Z,84.79
2024-04-19T03:39:47.088Z,84.72
2024-04-19T03:45:08.357Z,85.24
2024-04-19T03:50:12.427Z,85.24
2024-04-19T03:55:15.050Z,85.14
2024-04-19T04:00:18.513Z,85.52
2024-04-19T04:05:22.460Z,85.45
2024-04-19T04:10:24.978Z,85.58
2024-04-19T04:15:27.527Z,85.30
2024-04-19T04:20:30.060Z,85.70
2024-04-19T04:25:36.368Z,85.51
2024-04-19T04:30:42.466Z,85.88
2024-04-19T04:35:46.033Z,86.16
2024-04-19T04:40:48.603Z,86.53
2024-04-19T04:45:53.021Z,87.11
2024-04-19T04:50:55.678Z,87.34
2024-04-19T04:55:58.197Z,87.39
2024-04-19T05:01:00.729Z,87.76
2024-04-19T05:06:03.608Z,88.48
2024-04-19T05:11:07.469Z,88.77
2024-04-19T05:16:10.782Z,87.90
2024-04-19T05:21:13.268Z,88.03
2024-04-19T05:26:15.944Z,87.56
2024-04-19T05:31:18.850Z,87.72
2024-04-19T05:36:21.395Z,87.89
2024-04-19T05:41:26.402Z,88.35
2024-04-19T05:46:29.372Z,88.97
2024-04-19T05:51:32.130Z,89.02
2024-04-19T05:56:34.773Z,88.90
2024-04-19T06:01:37.576Z,88.29
2024-04-19T06:06:40.158Z,88.81
2024-04-19T06:11:43.256Z,88.69
2024-04-19T06:16:46.778Z,88.10
2024-04-19T06:21:50.751Z,87.18
2024-04-19T06:26:53.827Z,86.72
2024-04-19T06:31:56.466Z,86.61
2024-04-19T06:36:59.278Z,86.62
2024-04-19T06:42:01.899Z,86.33
2024-04-19T06:47:05.959Z,85.83
2024-04-19T06:52:11.475Z,84.28
2024-04-19T06:57:14.129Z,83.52
2024-04-19T07:02:17.228Z,83.42
2024-04-19T07:07:20.027Z,83.15
2024-04-19T07:12:22.699Z,82.64
2024-04-19T07:17:25.699Z,82.91
2024-04-19T07:22:28.853Z,82.70
2024-04-19T07:27:39.012Z,82.11
2024-04-19T07:32:45.799Z,80.53
2024-04-19T07:37:48.647Z,80.54
2024-04-19T07:42:51.398Z,79.75
2024-04-19T07:47:54.657Z,79.46
2024-04-19T07:52:57.493Z,78.85
2024-04-19T07:58:00.374Z,78.04
2024-04-19T08:03:04.037Z,79.01
2024-04-19T08:08:07.116Z,78.98
2024-04-19T08:13:09.991Z,77.98
2024-04-19T08:18:12.648Z,77.46
2024-04-19T08:23:16.456Z,76.58
2024-04-19T08:28:21.099Z,74.79
2024-04-19T08:33:23.965Z,74.21
2024-04-19T08:38:27.518Z,72.45
2024-04-19T08:43:36.374Z,72.45
2024-04-19T08:48:44.027Z,73.51
2024-04-19T08:53:51.433Z,72.56
2024-04-19T08:58:55.168Z,71.85
2024-04-19T09:03:57.906Z,70.42
2024-04-19T09:09:00.804Z,69.74
2024-04-19T09:14:03.550Z,69.72
2024-04-19T09:19:09.921Z,68.28
2024-04-19T09:24:12.955Z,65.73
2024-04-19T09:29:16.878Z,65.60
2024-04-19T09:34:19.701Z,66.69
2024-04-19T09:39:25.973Z,66.85
2024-04-19T09:44:30.297Z,66.02
2024-04-19T09:49:34.599Z,66.20
2024-04-19T09:54:41.622Z,65.54
2024-04-19T09:59:45.839Z,65.04
2024-04-19T10:04:48.819Z,64.61
2024-04-19T10:09:54.954Z,63.69
2024-04-19T10:14:57.827Z,64.23
2024-04-19T10:20:00.741Z,64.87
2024-04-19T10:25:06.709Z,66.11
2024-04-19T10:30:16.290Z,66.84
2024-04-19T10:35:25.204Z,66.57
2024-04-19T10:40:28.464Z,66.01
2024-04-19T10:45:32.175Z,65.50
2024-04-19T10:50:35.312Z,67.10
2024-04-19T10:55:41.447Z,68.57
2024-04-19T11:00:48.792Z,69.96
2024-04-19T11:05:52.072Z,71.14
2024-04-19T11:10:55.091Z,72.21
2024-04-19T11:15:59.326Z,72.84
2024-04-19T11:21:08.343Z,73.63
2024-04-19T11:26:20.574Z,74.75
2024-04-19T11:31:23.455Z,75.55
2024-04-19T11:36:26.999Z,76.50
2024-04-19T11:41:31.245Z,75.65
2024-04-19T11:46:33.976Z,75.80
2024-04-19T11:51:36.868Z,75.20
2024-04-19T11:56:39.867Z,74.71
2024-04-19T12:01:42.753Z,75.49
2024-04-19T12:06:45.510Z,76.00
2024-04-19T12:12:19.758Z,75.40
2024-04-19T12:17:18.114Z,74.30
2024-04-19T12:22:28.969Z,73.40
2024-04-19T12:27:33.393Z,71.85
2024-04-19T12:32:39.601Z,71.38
2024-04-19T12:37:42.742Z,70.07
2024-04-19T12:42:46.464Z,69.06
2024-04-19T12:47:49.595Z,68.73
2024-04-19T12:52:52.650Z,65.65
2024-04-19T12:57:55.403Z,62.23
2024-04-19T13:02:58.431Z,60.94
2024-04-19T13:08:02.495Z,61.46
2024-04-19T13:13:06.473Z,60.59
2024-04-19T13:18:10.906Z,59.61
2024-04-19T13:23:13.707Z,58.96
2024-04-19T13:28:16.311Z,59.41
2024-04-19T13:33:19.033Z,58.22
2024-04-19T13:38:21.740Z,57.00
2024-04-19T13:43:24.384Z,57.17
2024-04-19T13:48:37.774Z,55.65
2024-04-19T13:53:43.861Z,53.96
2024-04-19T13:58:46.462Z,54.00
2024-04-19T14:03:55.752Z,54.88
2024-04-19T14:08:58.536Z,55.91
2024-04-19T14:14:02.718Z,55.92
2024-04-19T14:19:05.386Z,54.49
2024-04-19T14:24:08.111Z,54.71
2024-04-19T14:29:10.893Z,54.68
2024-04-19T14:34:13.593Z,54.28
2024-04-19T14:39:16.408Z,54.57
2024-04-19T14:44:19.063Z,54.81
2024-04-19T14:49:22.566Z,53.42
2024-04-19T14:54:27.507Z,53.44
2024-04-19T14:59:30.217Z,52.85
2024-04-19T15:04:33.401Z,53.06
2024-04-19T15:09:36.068Z,53.35
2024-04-19T15:14:39.501Z,53.36
2024-04-19T15:19:42.198Z,53.63
2024-04-19T15:24:44.840Z,54.38
2024-04-19T15:29:47.483Z,54.10
2024-04-19T15:34:50.181Z,53.80
2024-04-19T15:39:56.113Z,52.83
2024-04-19T15:44:58.975Z,51.01
2024-04-19T15:50:01.817Z,49.73
2024-04-19T15:55:06.232Z,49.77
2024-04-19T16:00:11.792Z,47.82
2024-04-19T16:05:15.552Z,46.63
2024-04-19T16:10:20.056Z,46.11
2024-04-19T16:15:23.786Z,45.75
2024-04-19T16:20:26.380Z,46.54
2024-04-19T16:25:28.950Z,46.86
2024-04-19T16:30:31.598Z,47.46
2024-04-19T16:35:39.370Z,47.48
2024-04-19T16:40:47.357Z,47.97
2024-04-19T16:45:51.629Z,51.39
2024-04-19T16:50:59.535Z,53.94
2024-04-19T16:56:04.742Z,56.08
2024-04-19T17:01:09.123Z,57.91
2024-04-19T17:06:14.902Z,59.05
2024-04-19T17:11:18.940Z,59.96
2024-04-19T17:16:21.635Z,60.71
2024-04-19T17:21:24.660Z,61.37
2024-04-19T17:26:29.471Z,61.68
2024-04-19T17:31:32.185Z,62.29
2024-04-19T17:36:34.792Z,63.49
2024-04-19T17:41:37.481Z,64.06
2024-04-19T17:46:41.413Z,64.75
2024-04-19T17:51:44.071Z,65.49
2024-04-19T17:56:46.748Z,66.02
2024-04-19T18:01:49.432Z,66.67
2024-04-19T18:06:52.163Z,67.10
2024-04-19T18:11:54.798Z,67.62
2024-04-19T18:16:58.049Z,67.83
2024-04-19T18:22:02.190Z,68.34
2024-04-19T18:27:05.059Z,68.58
2024-04-19T18:32:08.420Z,68.99
2024-04-19T18:37:11.120Z,69.46
2024-04-19T18:42:13.765Z,69.89
2024-04-19T18:47:19.830Z,70.57
2024-04-19T18:52:23.012Z,71.20
2024-04-19T18:57:25.801Z,71.22
2024-04-19T19:02:28.375Z,71.25
2024-04-19T19:07:30.942Z,71.75
2024-04-19T19:12:36.900Z,71.55
2024-04-19T19:17:40.598Z,71.98
2024-04-19T19:22:43.341Z,72.05
2024-04-19T19:27:47.164Z,72.43
2024-04-19T19:32:49.932Z,72.76
2024-04-19T19:37:52.744Z,73.46
2024-04-19T19:42:55.456Z,73.87
2024-04-19T19:47:58.182Z,74.27
2024-04-19T19:53:01.048Z,74.34
2024-04-19T19:58:04.218Z,74.44
2024-04-19T20:03:25.460Z,74.46
2024-04-19T20:08:28.285Z,74.36
2024-04-19T20:13:31.064Z,74.51
2024-04-19T20:18:33.967Z,75.08
2024-04-19T20:23:37.116Z,75.28
2024-04-19T20:28:39.851Z,75.92
2024-04-19T20:33:42.536Z,76.19
2024-04-19T20:38:45.295Z,76.27
2024-04-19T20:43:47.900Z,76.53
2024-04-19T20:48:50.542Z,76.58
2024-04-19T20:53:53.196Z,76.72
2024-04-19T20:58:55.747Z,76.94
2024-04-19T21:03:58.630Z,76.95
2024-04-19T21:09:05.165Z,77.35
2024-04-19T21:14:09.716Z,77.83
2024-04-19T21:19:12.421Z,78.00
2024-04-19T21:24:15.178Z,78.08
2024-04-19T21:29:18.832Z,77.88
2024-04-19T21:34:21.853Z,77.85
2024-04-19T21:39:24.788Z,77.96
2024-04-19T21:44:27.586Z,78.07
2024-04-19T21:49:30.340Z,78.26
2024-04-19T21:54:32.952Z,78.78
2024-04-19T21:59:35.572Z,78.99
2024-04-19T22:04:38.820Z,79.07
2024-04-19T22:09:41.531Z,79.08
2024-04-19T22:14:44.210Z,79.25
2024-04-19T22:19:47.236Z,79.22
2024-04-19T22:24:51.465Z,79.62
2024-04-19T22:29:54.804Z,80.01
2024-04-19T22:34:57.536Z,80.47
2024-04-19T22:40:00.258Z,80.94
2024-04-19T22:45:03.394Z,81.07
2024-04-19T22:50:06.525Z,80.78
2024-04-19T22:55:09.226Z,80.96
2024-04-19T23:00:14.497Z,80.89
2024-04-19T23:05:18.053Z,81.01
2024-04-19T23:10:20.625Z,81.56
2024-04-19T23:15:25.536Z,81.86
2024-04-19T23:20:28.274Z,81.89
2024-04-19T23:25:31.522Z,81.92
2024-04-19T23:30:34.128Z,81.85
2024-04-19T23:35:36.771Z,81.85
2024-04-19T23:40:39.343Z,81.98
2024-04-19T23:45:41.931Z,82.47
2024-04-19T23:50:44.562Z,82.71
2024-04-19T23:55:47.149Z,82.64
